sensor_id;sensor_type;location;lat;lon;timestamp;pressure;altitude;pressure_sealevel;temperature;humidity
37291;BME280;23175;-33.706;151.094;2023-02-21T09:19:24;100642.48;;;22.75;65.17
37291;BME280;23175;-33.706;151.094;2023-02-21T09:32:08;100646.95;;;17.97;78.74
37291;BME280;23175;-33.706;151.094;2023-02-21T09:34:38;100652.58;;;18.10;76.35
37291;BME280;23175;-33.706;151.094;2023-02-21T09:37:09;100653.89;;;17.99;77.10
37291;BME280;23175;-33.706;151.094;2023-02-21T09:39:39;100655.58;;;17.72;77.86
37291;BME280;23175;-33.706;151.094;2023-02-21T09:42:13;100658.27;;;18.81;75.94
37291;BME280;23175;-33.706;151.094;2023-02-21T09:44:45;100660.05;;;18.60;75.44
37291;BME280;23175;-33.706;151.094;2023-02-21T09:47:23;100649.70;;;18.34;76.19
37291;BME280;23175;-33.706;151.094;2023-02-21T09:49:59;100657.09;;;18.19;77.06
37291;BME280;23175;-33.706;151.094;2023-02-21T09:52:34;100658.97;;;18.62;76.00
37291;BME280;23175;-33.706;151.094;2023-02-21T09:55:11;100658.27;;;17.89;75.89
37291;BME280;23175;-33.706;151.094;2023-02-21T09:57:42;100660.24;;;19.08;72.24
37291;BME280;23175;-33.706;151.094;2023-02-21T10:00:20;100667.47;;;17.52;78.14
37291;BME280;23175;-33.706;151.094;2023-02-21T10:03:01;100673.71;;;17.07;79.44
37291;BME280;23175;-33.706;151.094;2023-02-21T10:05:42;100667.94;;;18.07;77.54
37291;BME280;23175;-33.706;151.094;2023-02-21T10:08:23;100667.62;;;20.07;71.21
37291;BME280;23175;-33.706;151.094;2023-02-21T10:10:57;100672.02;;;19.31;71.39
37291;BME280;23175;-33.706;151.094;2023-02-21T10:13:40;100674.34;;;16.86;77.89
37291;BME280;23175;-33.706;151.094;2023-02-21T10:16:16;100668.75;;;18.70;73.33
37291;BME280;23175;-33.706;151.094;2023-02-21T10:18:58;100672.21;;;18.19;74.14
37291;BME280;23175;-33.706;151.094;2023-02-21T10:21:34;100682.42;;;17.25;76.35
37291;BME280;23175;-33.706;151.094;2023-02-21T10:24:13;100687.28;;;18.64;72.99
37291;BME280;23175;-33.706;151.094;2023-02-21T10:26:47;100694.89;;;17.86;76.60
37291;BME280;23175;-33.706;151.094;2023-02-21T10:29:23;100687.25;;;18.67;73.64
37291;BME280;23175;-33.706;151.094;2023-02-21T10:31:58;100687.10;;;19.40;70.79
37291;BME280;23175;-33.706;151.094;2023-02-21T10:34:31;100674.55;;;15.73;79.24
37291;BME280;23175;-33.706;151.094;2023-02-21T10:37:10;100672.31;;;17.95;72.81
37291;BME280;23175;-33.706;151.094;2023-02-21T10:39:47;100682.30;;;17.08;76.82
37291;BME280;23175;-33.706;151.094;2023-02-21T10:42:27;100682.35;;;18.76;71.16
37291;BME280;23175;-33.706;151.094;2023-02-21T10:44:59;100687.55;;;17.07;75.42
37291;BME280;23175;-33.706;151.094;2023-02-21T10:47:37;100684.07;;;17.28;75.00
37291;BME280;23175;-33.706;151.094;2023-02-21T10:50:13;100692.67;;;17.65;75.90
37291;BME280;23175;-33.706;151.094;2023-02-21T10:52:50;100696.85;;;17.84;74.15
37291;BME280;23175;-33.706;151.094;2023-02-21T10:55:22;100702.88;;;16.29;78.76
37291;BME280;23175;-33.706;151.094;2023-02-21T10:57:54;100707.58;;;16.75;76.86
37291;BME280;23175;-33.706;151.094;2023-02-21T11:00:29;100722.03;;;17.06;77.66
37291;BME280;23175;-33.706;151.094;2023-02-21T11:03:06;100709.96;;;17.89;73.77
37291;BME280;23175;-33.706;151.094;2023-02-21T11:05:49;100711.13;;;16.55;79.21
37291;BME280;23175;-33.706;151.094;2023-02-21T11:08:35;100709.88;;;16.73;77.83
37291;BME280;23175;-33.706;151.094;2023-02-21T11:11:07;100721.78;;;16.27;80.46
37291;BME280;23175;-33.706;151.094;2023-02-21T11:13:37;100726.87;;;15.47;80.58
37291;BME280;23175;-33.706;151.094;2023-02-21T11:16:14;100722.56;;;16.55;76.94
37291;BME280;23175;-33.706;151.094;2023-02-21T11:18:45;100719.05;;;17.83;73.84
37291;BME280;23175;-33.706;151.094;2023-02-21T11:21:17;100721.43;;;17.82;71.84
37291;BME280;23175;-33.706;151.094;2023-02-21T11:23:53;100731.29;;;17.81;74.23
37291;BME280;23175;-33.706;151.094;2023-02-21T11:26:25;100736.38;;;15.99;76.64
37291;BME280;23175;-33.706;151.094;2023-02-21T11:29:07;100734.62;;;17.48;73.36
37291;BME280;23175;-33.706;151.094;2023-02-21T11:31:39;100734.76;;;17.24;72.99
37291;BME280;23175;-33.706;151.094;2023-02-21T11:34:12;100738.02;;;18.48;71.55
37291;BME280;23175;-33.706;151.094;2023-02-21T11:36:45;100736.11;;;18.79;69.29
37291;BME280;23175;-33.706;151.094;2023-02-21T11:39:17;100731.54;;;15.80;77.57
37291;BME280;23175;-33.706;151.094;2023-02-21T11:41:49;100742.75;;;16.88;75.15
37291;BME280;23175;-33.706;151.094;2023-02-21T11:44:26;100734.28;;;18.93;69.31
37291;BME280;23175;-33.706;151.094;2023-02-21T11:47:06;100740.44;;;18.45;70.71
37291;BME280;23175;-33.706;151.094;2023-02-21T11:49:43;100735.04;;;19.06;69.80
37291;BME280;23175;-33.706;151.094;2023-02-21T11:52:21;100725.31;;;20.50;64.23
37291;BME280;23175;-33.706;151.094;2023-02-21T11:54:54;100720.71;;;18.23;69.52
37291;BME280;23175;-33.706;151.094;2023-02-21T11:57:30;100718.79;;;19.53;65.23
37291;BME280;23175;-33.706;151.094;2023-02-21T12:00:16;100712.38;;;17.70;71.40
37291;BME280;23175;-33.706;151.094;2023-02-21T12:03:01;100709.43;;;17.24;70.78
37291;BME280;23175;-33.706;151.094;2023-02-21T12:05:46;100707.65;;;18.73;68.31
37291;BME280;23175;-33.706;151.094;2023-02-21T12:08:37;100699.02;;;20.89;62.27
37291;BME280;23175;-33.706;151.094;2023-02-21T12:11:20;100697.13;;;21.34;61.19
37291;BME280;23175;-33.706;151.094;2023-02-21T12:14:07;100695.07;;;22.38;58.69
37291;BME280;23175;-33.706;151.094;2023-02-21T12:16:47;100699.57;;;19.48;65.01
37291;BME280;23175;-33.706;151.094;2023-02-21T12:19:42;100691.02;;;20.94;61.83
37291;BME280;23175;-33.706;151.094;2023-02-21T12:22:30;100692.00;;;18.79;66.77
37291;BME280;23175;-33.706;151.094;2023-02-21T12:25:14;100687.66;;;20.69;63.33
37291;BME280;23175;-33.706;151.094;2023-02-21T12:27:53;100691.80;;;20.56;63.76
37291;BME280;23175;-33.706;151.094;2023-02-21T12:30:36;100696.33;;;19.73;64.90
37291;BME280;23175;-33.706;151.094;2023-02-21T12:33:20;100689.92;;;19.50;66.03
37291;BME280;23175;-33.706;151.094;2023-02-21T12:36:21;100686.32;;;17.95;69.74
37291;BME280;23175;-33.706;151.094;2023-02-21T12:39:05;100680.53;;;19.61;65.50
37291;BME280;23175;-33.706;151.094;2023-02-21T12:42:04;100674.08;;;20.16;65.24
37291;BME280;23175;-33.706;151.094;2023-02-21T12:44:46;100693.04;;;16.30;74.82
37291;BME280;23175;-33.706;151.094;2023-02-21T12:47:21;100693.80;;;17.43;74.87
37291;BME280;23175;-33.706;151.094;2023-02-21T12:49:59;100691.71;;;16.26;75.52
37291;BME280;23175;-33.706;151.094;2023-02-21T12:52:34;100691.63;;;17.76;72.91
37291;BME280;23175;-33.706;151.094;2023-02-21T12:55:17;100687.89;;;17.13;73.05
37291;BME280;23175;-33.706;151.094;2023-02-21T12:57:52;100693.73;;;17.61;71.58
37291;BME280;23175;-33.706;151.094;2023-02-21T13:00:29;100688.78;;;19.44;67.42
37291;BME280;23175;-33.706;151.094;2023-02-21T13:03:06;100686.87;;;18.41;69.45
37291;BME280;23175;-33.706;151.094;2023-02-21T13:05:44;100677.47;;;18.29;69.14
37291;BME280;23175;-33.706;151.094;2023-02-21T13:08:19;100672.81;;;17.57;71.58
37291;BME280;23175;-33.706;151.094;2023-02-21T13:10:54;100668.51;;;18.40;69.21
37291;BME280;23175;-33.706;151.094;2023-02-21T13:13:28;100669.34;;;18.72;68.05
37291;BME280;23175;-33.706;151.094;2023-02-21T13:16:01;100668.61;;;19.69;66.24
37291;BME280;23175;-33.706;151.094;2023-02-21T13:18:34;100663.37;;;18.08;69.58
37291;BME280;23175;-33.706;151.094;2023-02-21T13:21:14;100666.31;;;17.31;72.46
37291;BME280;23175;-33.706;151.094;2023-02-21T13:23:51;100665.05;;;19.88;66.57
37291;BME280;23175;-33.706;151.094;2023-02-21T13:26:42;100669.04;;;18.01;69.58
37291;BME280;23175;-33.706;151.094;2023-02-21T13:29:21;100668.19;;;18.31;69.87
37291;BME280;23175;-33.706;151.094;2023-02-21T13:32:00;100666.60;;;16.94;73.95
37291;BME280;23175;-33.706;151.094;2023-02-21T13:34:34;100667.64;;;18.56;69.89
37291;BME280;23175;-33.706;151.094;2023-02-21T13:37:12;100665.98;;;17.26;73.33
37291;BME280;23175;-33.706;151.094;2023-02-21T13:39:48;100666.32;;;15.81;77.46
37291;BME280;23175;-33.706;151.094;2023-02-21T13:42:22;100657.30;;;17.00;75.21
37291;BME280;23175;-33.706;151.094;2023-02-21T13:45:04;100657.44;;;18.64;70.95
37291;BME280;23175;-33.706;151.094;2023-02-21T13:48:19;100653.78;;;18.08;71.79
37291;BME280;23175;-33.706;151.094;2023-02-21T13:50:50;100651.04;;;16.79;75.80
37291;BME280;23175;-33.706;151.094;2023-02-21T13:53:23;100653.32;;;18.92;68.06
37291;BME280;23175;-33.706;151.094;2023-02-21T13:56:17;100656.02;;;19.46;67.63
37291;BME280;23175;-33.706;151.094;2023-02-21T13:58:48;100654.83;;;18.23;70.37
37291;BME280;23175;-33.706;151.094;2023-02-21T14:01:39;100662.50;;;19.02;69.14
37291;BME280;23175;-33.706;151.094;2023-02-21T14:05:14;100659.40;;;18.16;69.77
37291;BME280;23175;-33.706;151.094;2023-02-21T14:07:47;100656.39;;;17.52;72.02
37291;BME280;23175;-33.706;151.094;2023-02-21T14:10:28;100658.58;;;17.18;71.63
37291;BME280;23175;-33.706;151.094;2023-02-21T14:13:00;100664.49;;;17.76;71.57
37291;BME280;23175;-33.706;151.094;2023-02-21T14:15:43;100668.31;;;18.53;69.20
37291;BME280;23175;-33.706;151.094;2023-02-21T14:18:27;100666.21;;;17.95;70.57
37291;BME280;23175;-33.706;151.094;2023-02-21T14:21:02;100660.70;;;19.56;67.00
37291;BME280;23175;-33.706;151.094;2023-02-21T14:23:44;100653.81;;;18.98;67.78
37291;BME280;23175;-33.706;151.094;2023-02-21T14:26:38;100639.51;;;19.18;67.59
37291;BME280;23175;-33.706;151.094;2023-02-21T14:29:43;100642.15;;;18.42;69.44
37291;BME280;23175;-33.706;151.094;2023-02-21T14:32:34;100643.36;;;18.42;69.81
37291;BME280;23175;-33.706;151.094;2023-02-21T14:35:21;100644.17;;;20.16;65.70
37291;BME280;23175;-33.706;151.094;2023-02-21T14:37:57;100639.37;;;21.66;60.77
37291;BME280;23175;-33.706;151.094;2023-02-21T14:40:39;100639.25;;;20.38;63.57
37291;BME280;23175;-33.706;151.094;2023-02-21T14:43:28;100633.82;;;16.27;74.96
37291;BME280;23175;-33.706;151.094;2023-02-21T14:49:20;100642.37;;;18.51;69.13
37291;BME280;23175;-33.706;151.094;2023-02-21T14:52:10;100630.33;;;17.45;71.40
37291;BME280;23175;-33.706;151.094;2023-02-21T14:57:09;100627.38;;;16.90;74.34
37291;BME280;23175;-33.706;151.094;2023-02-21T14:59:59;100626.46;;;16.42;76.48
37291;BME280;23175;-33.706;151.094;2023-02-21T15:02:39;100633.80;;;18.78;70.41
37291;BME280;23175;-33.706;151.094;2023-02-21T15:05:16;100637.96;;;17.80;71.55
37291;BME280;23175;-33.706;151.094;2023-02-21T15:07:58;100629.91;;;15.86;76.68
37291;BME280;23175;-33.706;151.094;2023-02-21T15:10:32;100623.53;;;16.76;76.79
37291;BME280;23175;-33.706;151.094;2023-02-21T15:13:23;100613.17;;;15.25;78.99
37291;BME280;23175;-33.706;151.094;2023-02-21T15:15:58;100619.85;;;17.11;74.84
37291;BME280;23175;-33.706;151.094;2023-02-21T15:18:32;100622.02;;;16.55;75.15
37291;BME280;23175;-33.706;151.094;2023-02-21T15:21:07;100617.03;;;17.32;73.16
37291;BME280;23175;-33.706;151.094;2023-02-21T15:23:45;100619.47;;;16.05;76.76
37291;BME280;23175;-33.706;151.094;2023-02-21T15:26:19;100608.53;;;18.48;70.07
37291;BME280;23175;-33.706;151.094;2023-02-21T15:29:07;100616.79;;;16.66;74.91
37291;BME280;23175;-33.706;151.094;2023-02-21T15:31:41;100619.55;;;16.02;78.13
37291;BME280;23175;-33.706;151.094;2023-02-21T15:34:18;100611.81;;;16.08;76.06
37291;BME280;23175;-33.706;151.094;2023-02-21T15:36:52;100618.58;;;14.91;78.89
37291;BME280;23175;-33.706;151.094;2023-02-21T15:39:27;100615.34;;;17.33;72.49
37291;BME280;23175;-33.706;151.094;2023-02-21T15:41:58;100612.15;;;16.51;75.75
37291;BME280;23175;-33.706;151.094;2023-02-21T15:44:33;100613.52;;;16.86;74.14
37291;BME280;23175;-33.706;151.094;2023-02-21T15:47:11;100615.00;;;16.17;75.40
37291;BME280;23175;-33.706;151.094;2023-02-21T15:49:45;100616.11;;;17.34;72.82
37291;BME280;23175;-33.706;151.094;2023-02-21T15:52:29;100611.51;;;16.23;75.22
37291;BME280;23175;-33.706;151.094;2023-02-21T15:55:30;100604.34;;;17.85;71.52
37291;BME280;23175;-33.706;151.094;2023-02-21T15:58:10;100606.45;;;16.78;73.56
37291;BME280;23175;-33.706;151.094;2023-02-21T16:00:45;100602.62;;;17.67;73.94
37291;BME280;23175;-33.706;151.094;2023-02-21T16:03:48;100597.10;;;19.99;66.58
37291;BME280;23175;-33.706;151.094;2023-02-21T16:06:21;100592.68;;;16.00;73.83
37291;BME280;23175;-33.706;151.094;2023-02-21T16:08:56;100595.52;;;16.05;77.41
37291;BME280;23175;-33.706;151.094;2023-02-21T16:11:39;100590.83;;;16.08;75.82
37291;BME280;23175;-33.706;151.094;2023-02-21T16:14:18;100596.52;;;17.55;71.96
37291;BME280;23175;-33.706;151.094;2023-02-21T16:16:53;100594.72;;;17.83;70.30
37291;BME280;23175;-33.706;151.094;2023-02-21T16:19:26;100591.70;;;16.21;74.37
37291;BME280;23175;-33.706;151.094;2023-02-21T16:22:23;100596.57;;;16.91;72.40
37291;BME280;23175;-33.706;151.094;2023-02-21T16:25:11;100589.02;;;16.86;71.32
37291;BME280;23175;-33.706;151.094;2023-02-21T16:27:44;100586.90;;;15.97;74.14
37291;BME280;23175;-33.706;151.094;2023-02-21T16:30:18;100588.61;;;15.77;76.34
37291;BME280;23175;-33.706;151.094;2023-02-21T16:32:50;100589.18;;;14.68;78.79
37291;BME280;23175;-33.706;151.094;2023-02-21T16:35:23;100580.45;;;16.57;74.57
37291;BME280;23175;-33.706;151.094;2023-02-21T16:37:55;100584.24;;;16.01;77.35
37291;BME280;23175;-33.706;151.094;2023-02-21T16:40:28;100579.89;;;17.35;72.46
37291;BME280;23175;-33.706;151.094;2023-02-21T16:42:59;100577.71;;;17.92;70.27
37291;BME280;23175;-33.706;151.094;2023-02-21T16:45:30;100583.85;;;16.03;74.42
37291;BME280;23175;-33.706;151.094;2023-02-21T16:48:04;100586.28;;;16.39;74.04
37291;BME280;23175;-33.706;151.094;2023-02-21T16:50:36;100583.85;;;16.46;73.75
37291;BME280;23175;-33.706;151.094;2023-02-21T16:53:09;100585.41;;;16.66;72.27
37291;BME280;23175;-33.706;151.094;2023-02-21T16:55:42;100596.70;;;14.79;78.23
37291;BME280;23175;-33.706;151.094;2023-02-21T16:58:20;100591.74;;;17.95;70.32
37291;BME280;23175;-33.706;151.094;2023-02-21T17:00:55;100587.94;;;17.07;71.27
37291;BME280;23175;-33.706;151.094;2023-02-21T17:03:26;100591.80;;;14.97;76.61
37291;BME280;23175;-33.706;151.094;2023-02-21T17:05:57;100587.37;;;17.28;72.34
37291;BME280;23175;-33.706;151.094;2023-02-21T17:08:29;100586.55;;;16.83;72.43
37291;BME280;23175;-33.706;151.094;2023-02-21T17:10:59;100594.66;;;14.39;79.28
37291;BME280;23175;-33.706;151.094;2023-02-21T17:13:29;100591.41;;;15.13;76.42
37291;BME280;23175;-33.706;151.094;2023-02-21T17:15:59;100606.62;;;16.30;75.01
37291;BME280;23175;-33.706;151.094;2023-02-21T17:18:29;100609.78;;;14.49;79.53
37291;BME280;23175;-33.706;151.094;2023-02-21T17:20:59;100606.86;;;15.34;77.50
37291;BME280;23175;-33.706;151.094;2023-02-21T17:23:30;100602.47;;;16.53;74.11
37291;BME280;23175;-33.706;151.094;2023-02-21T17:26:00;100599.11;;;16.26;74.82
37291;BME280;23175;-33.706;151.094;2023-02-21T17:28:31;100601.34;;;14.77;77.40
37291;BME280;23175;-33.706;151.094;2023-02-21T17:31:01;100591.38;;;15.58;74.38
37291;BME280;23175;-33.706;151.094;2023-02-21T17:33:31;100589.42;;;14.40;77.55
37291;BME280;23175;-33.706;151.094;2023-02-21T17:36:01;100579.64;;;16.35;73.55
37291;BME280;23175;-33.706;151.094;2023-02-21T17:38:33;100580.42;;;15.72;74.29
37291;BME280;23175;-33.706;151.094;2023-02-21T17:41:04;100576.81;;;15.77;72.42
37291;BME280;23175;-33.706;151.094;2023-02-21T17:43:34;100575.96;;;15.14;73.50
37291;BME280;23175;-33.706;151.094;2023-02-21T17:46:07;100579.06;;;17.25;69.63
37291;BME280;23175;-33.706;151.094;2023-02-21T17:48:39;100581.13;;;14.98;76.26
37291;BME280;23175;-33.706;151.094;2023-02-21T17:51:16;100577.93;;;16.92;73.38
37291;BME280;23175;-33.706;151.094;2023-02-21T17:53:46;100585.87;;;14.42;77.55
37291;BME280;23175;-33.706;151.094;2023-02-21T17:56:20;100594.76;;;15.82;75.61
37291;BME280;23175;-33.706;151.094;2023-02-21T17:58:54;100601.41;;;15.75;75.86
37291;BME280;23175;-33.706;151.094;2023-02-21T18:01:24;100605.59;;;15.07;79.10
37291;BME280;23175;-33.706;151.094;2023-02-21T18:03:55;100607.87;;;15.18;78.95
37291;BME280;23175;-33.706;151.094;2023-02-21T18:06:25;100615.81;;;14.61;80.05
37291;BME280;23175;-33.706;151.094;2023-02-21T18:08:55;100621.21;;;13.50;82.95
37291;BME280;23175;-33.706;151.094;2023-02-21T18:11:26;100630.14;;;14.55;79.41
37291;BME280;23175;-33.706;151.094;2023-02-21T18:13:57;100632.67;;;15.37;79.13
37291;BME280;23175;-33.706;151.094;2023-02-21T18:16:27;100625.53;;;16.43;77.52
37291;BME280;23175;-33.706;151.094;2023-02-21T18:18:57;100632.15;;;15.23;77.76
37291;BME280;23175;-33.706;151.094;2023-02-21T18:21:27;100644.96;;;13.54;80.50
37291;BME280;23175;-33.706;151.094;2023-02-21T18:23:57;100640.90;;;13.13;83.71
37291;BME280;23175;-33.706;151.094;2023-02-21T18:26:27;100646.70;;;14.43;79.35
37291;BME280;23175;-33.706;151.094;2023-02-21T18:28:57;100646.25;;;15.64;75.90
37291;BME280;23175;-33.706;151.094;2023-02-21T18:31:27;100649.47;;;16.98;72.33
37291;BME280;23175;-33.706;151.094;2023-02-21T18:33:57;100657.96;;;14.87;75.15
37291;BME280;23175;-33.706;151.094;2023-02-21T18:36:26;100659.45;;;14.31;77.25
37291;BME280;23175;-33.706;151.094;2023-02-21T18:38:56;100656.97;;;16.54;72.91
37291;BME280;23175;-33.706;151.094;2023-02-21T18:41:26;100669.80;;;15.04;74.52
37291;BME280;23175;-33.706;151.094;2023-02-21T18:43:56;100662.87;;;15.64;73.51
37291;BME280;23175;-33.706;151.094;2023-02-21T18:46:26;100664.06;;;16.06;72.38
37291;BME280;23175;-33.706;151.094;2023-02-21T18:48:56;100657.71;;;16.91;68.34
37291;BME280;23175;-33.706;151.094;2023-02-21T18:51:25;100663.66;;;14.07;76.36
37291;BME280;23175;-33.706;151.094;2023-02-21T18:53:55;100652.35;;;13.34;76.03
37291;BME280;23175;-33.706;151.094;2023-02-21T18:56:26;100661.07;;;14.08;74.80
37291;BME280;23175;-33.706;151.094;2023-02-21T18:58:57;100656.06;;;14.03;73.75
37291;BME280;23175;-33.706;151.094;2023-02-21T19:01:26;100665.39;;;14.86;72.96
37291;BME280;23175;-33.706;151.094;2023-02-21T19:03:57;100660.78;;;15.63;70.65
37291;BME280;23175;-33.706;151.094;2023-02-21T19:06:27;100663.45;;;13.90;74.53
37291;BME280;23175;-33.706;151.094;2023-02-21T19:08:57;100661.00;;;14.33;74.07
37291;BME280;23175;-33.706;151.094;2023-02-21T19:11:27;100665.85;;;14.29;73.01
37291;BME280;23175;-33.706;151.094;2023-02-21T19:13:57;100665.43;;;14.53;73.81
37291;BME280;23175;-33.706;151.094;2023-02-21T19:16:27;100658.01;;;16.52;67.76
37291;BME280;23175;-33.706;151.094;2023-02-21T19:18:58;100656.49;;;17.98;65.41
37291;BME280;23175;-33.706;151.094;2023-02-21T19:21:29;100668.21;;;15.34;70.46
37291;BME280;23175;-33.706;151.094;2023-02-21T19:24:00;100667.82;;;16.05;68.03
37291;BME280;23175;-33.706;151.094;2023-02-21T19:26:30;100671.72;;;15.98;66.27
37291;BME280;23175;-33.706;151.094;2023-02-21T19:28:59;100668.72;;;15.48;69.36
37291;BME280;23175;-33.706;151.094;2023-02-21T19:31:29;100673.77;;;14.95;70.51
37291;BME280;23175;-33.706;151.094;2023-02-21T19:33:59;100672.02;;;17.54;64.54
37291;BME280;23175;-33.706;151.094;2023-02-21T19:36:29;100678.79;;;15.92;68.89
37291;BME280;23175;-33.706;151.094;2023-02-21T19:38:59;100676.39;;;15.92;66.91
37291;BME280;23175;-33.706;151.094;2023-02-21T19:41:30;100681.95;;;14.58;71.12
37291;BME280;23175;-33.706;151.094;2023-02-21T19:43:59;100682.89;;;15.54;69.02
37291;BME280;23175;-33.706;151.094;2023-02-21T19:46:29;100684.63;;;15.44;67.93
37291;BME280;23175;-33.706;151.094;2023-02-21T19:48:59;100689.50;;;15.43;68.73
37291;BME280;23175;-33.706;151.094;2023-02-21T19:51:30;100688.52;;;16.92;62.79
37291;BME280;23175;-33.706;151.094;2023-02-21T19:54:02;100693.59;;;16.57;65.65
37291;BME280;23175;-33.706;151.094;2023-02-21T19:56:32;100700.61;;;14.90;67.12
37291;BME280;23175;-33.706;151.094;2023-02-21T19:59:02;100699.57;;;16.83;62.94
37291;BME280;23175;-33.706;151.094;2023-02-21T20:01:33;100701.59;;;17.40;63.51
37291;BME280;23175;-33.706;151.094;2023-02-21T20:04:04;100701.61;;;17.04;62.66
37291;BME280;23175;-33.706;151.094;2023-02-21T20:06:34;100707.99;;;16.45;62.59
37291;BME280;23175;-33.706;151.094;2023-02-21T20:09:05;100706.96;;;16.95;63.11
37291;BME280;23175;-33.706;151.094;2023-02-21T20:11:36;100705.26;;;16.18;63.80
37291;BME280;23175;-33.706;151.094;2023-02-21T20:14:07;100711.11;;;16.66;63.25
37291;BME280;23175;-33.706;151.094;2023-02-21T20:16:39;100704.77;;;17.34;61.90
37291;BME280;23175;-33.706;151.094;2023-02-21T20:19:10;100711.87;;;17.30;62.85
37291;BME280;23175;-33.706;151.094;2023-02-21T20:21:40;100714.09;;;16.54;63.53
37291;BME280;23175;-33.706;151.094;2023-02-21T20:24:10;100715.17;;;15.06;67.23
37291;BME280;23175;-33.706;151.094;2023-02-21T20:26:40;100711.84;;;17.96;60.61
37291;BME280;23175;-33.706;151.094;2023-02-21T20:29:10;100711.60;;;15.98;63.71
37291;BME280;23175;-33.706;151.094;2023-02-21T20:31:40;100713.59;;;16.10;65.83
37291;BME280;23175;-33.706;151.094;2023-02-21T20:34:10;100713.58;;;15.79;64.37
37291;BME280;23175;-33.706;151.094;2023-02-21T20:36:42;100713.67;;;16.68;63.16
37291;BME280;23175;-33.706;151.094;2023-02-21T20:39:20;100715.05;;;16.98;60.74
37291;BME280;23175;-33.706;151.094;2023-02-21T20:41:50;100722.34;;;15.62;66.65
37291;BME280;23175;-33.706;151.094;2023-02-21T20:44:21;100722.18;;;16.78;61.01
37291;BME280;23175;-33.706;151.094;2023-02-21T20:46:51;100732.84;;;13.74;68.70
37291;BME280;23175;-33.706;151.094;2023-02-21T20:49:21;100729.10;;;17.51;60.92
37291;BME280;23175;-33.706;151.094;2023-02-21T20:51:52;100736.05;;;15.74;64.22
37291;BME280;23175;-33.706;151.094;2023-02-21T20:54:22;100740.55;;;14.64;68.41
37291;BME280;23175;-33.706;151.094;2023-02-21T20:56:55;100743.50;;;16.67;63.63
37291;BME280;23175;-33.706;151.094;2023-02-21T20:59:27;100748.18;;;15.20;64.84
37291;BME280;23175;-33.706;151.094;2023-02-21T21:01:58;100756.47;;;15.72;64.58
37291;BME280;23175;-33.706;151.094;2023-02-21T21:04:30;100755.41;;;16.05;62.37
37291;BME280;23175;-33.706;151.094;2023-02-21T21:07:04;100754.49;;;18.14;58.63
37291;BME280;23175;-33.706;151.094;2023-02-21T21:09:34;100753.55;;;17.81;59.48
37291;BME280;23175;-33.706;151.094;2023-02-21T21:12:07;100752.74;;;16.56;58.95
37291;BME280;23175;-33.706;151.094;2023-02-21T21:14:38;100757.83;;;16.55;58.18
37291;BME280;23175;-33.706;151.094;2023-02-21T21:17:10;100759.44;;;17.40;58.61
37291;BME280;23175;-33.706;151.094;2023-02-21T21:19:43;100768.36;;;15.51;61.21
37291;BME280;23175;-33.706;151.094;2023-02-21T21:22:15;100772.13;;;17.11;59.04
37291;BME280;23175;-33.706;151.094;2023-02-21T21:24:45;100774.49;;;18.86;54.20
37291;BME280;23175;-33.706;151.094;2023-02-21T21:27:17;100779.36;;;16.68;57.07
37291;BME280;23175;-33.706;151.094;2023-02-21T21:29:48;100777.10;;;15.37;59.87
37291;BME280;23175;-33.706;151.094;2023-02-21T21:32:21;100781.29;;;14.15;63.13
37291;BME280;23175;-33.706;151.094;2023-02-21T21:34:54;100786.01;;;15.56;62.64
37291;BME280;23175;-33.706;151.094;2023-02-21T21:37:26;100783.03;;;16.93;59.18
37291;BME280;23175;-33.706;151.094;2023-02-21T21:39:56;100780.10;;;17.14;57.04
37291;BME280;23175;-33.706;151.094;2023-02-21T21:42:27;100784.61;;;15.97;60.33
37291;BME280;23175;-33.706;151.094;2023-02-21T21:45:00;100791.77;;;14.75;64.46
37291;BME280;23175;-33.706;151.094;2023-02-21T21:47:31;100791.39;;;17.13;59.12
37291;BME280;23175;-33.706;151.094;2023-02-21T21:50:00;100791.67;;;17.64;58.09
37291;BME280;23175;-33.706;151.094;2023-02-21T21:52:30;100794.87;;;15.84;58.98
37291;BME280;23175;-33.706;151.094;2023-02-21T21:55:01;100793.56;;;19.14;51.80
37291;BME280;23175;-33.706;151.094;2023-02-21T21:57:30;100798.11;;;15.25;62.80
37291;BME280;23175;-33.706;151.094;2023-02-21T22:00:01;100795.17;;;16.20;57.03
37291;BME280;23175;-33.706;151.094;2023-02-21T22:02:31;100801.81;;;15.56;59.47
37291;BME280;23175;-33.706;151.094;2023-02-21T22:05:01;100808.04;;;17.12;56.15
37291;BME280;23175;-33.706;151.094;2023-02-21T22:07:31;100813.41;;;15.08;62.03
37291;BME280;23175;-33.706;151.094;2023-02-21T22:10:02;100819.76;;;15.10;63.58
37291;BME280;23175;-33.706;151.094;2023-02-21T22:12:32;100823.20;;;14.74;64.17
37291;BME280;23175;-33.706;151.094;2023-02-21T22:15:02;100827.88;;;16.18;62.24
37291;BME280;23175;-33.706;151.094;2023-02-21T22:17:32;100831.32;;;14.73;63.92
37291;BME280;23175;-33.706;151.094;2023-02-21T22:20:03;100839.26;;;13.35;69.54
37291;BME280;23175;-33.706;151.094;2023-02-21T22:22:34;100854.75;;;14.07;68.49
37291;BME280;23175;-33.706;151.094;2023-02-21T22:25:04;100852.27;;;15.66;65.35
37291;BME280;23175;-33.706;151.094;2023-02-21T22:27:34;100851.94;;;14.90;65.40
37291;BME280;23175;-33.706;151.094;2023-02-21T22:30:05;100841.24;;;16.03;59.29
37291;BME280;23175;-33.706;151.094;2023-02-21T22:32:35;100845.41;;;16.45;59.32
37291;BME280;23175;-33.706;151.094;2023-02-21T22:35:06;100841.53;;;15.68;60.82